Terminal Aerodrome Forecast
Issued by NWS Wilmington, NC

Home | Current Version | Previous Version | Text Only | Print | Product List | Glossary On
Versions: 1 2 3 4 5 6 7 8 9 10 11 12 13 14 15 16 17 18
000
FTUS42 KILM 111100
TAFMYR
TAF
KMYR 111120Z 1112/1212 VRB04KT P6SM FEW070 SCT090 BKN110
     FM111400 19008KT P6SM VCTS BKN050CB
     FM111800 17014KT P6SM VCTS BKN040CB
     FM120200 19005KT P6SM VCSH SCT050 BKN250=

USA.gov is the U.S. government's official web portal to all federal, state and local government web resources and services.